createdAt,value
2017-08-14T08:38:55.471Z,3.83
2017-08-14T08:41:23.058Z,3.73
2017-08-14T08:43:50.639Z,4.37
2017-08-14T08:46:18.221Z,4.67
2017-08-14T08:48:45.805Z,5.13
2017-08-14T08:51:13.361Z,4.67
2017-08-14T08:53:40.918Z,5.27
2017-08-14T08:56:08.493Z,4.47
2017-08-14T08:58:36.069Z,5.10
2017-08-14T09:01:03.650Z,4.60
2017-08-14T09:03:31.990Z,4.80
2017-08-14T09:05:59.756Z,5.30
2017-08-14T09:08:27.346Z,5.20
2017-08-14T09:10:55.715Z,4.93
2017-08-14T09:13:23.291Z,4.80
2017-08-14T09:15:50.874Z,4.13
2017-08-14T09:18:19.194Z,4.97
2017-08-14T09:20:46.754Z,5.10
2017-08-14T09:23:14.341Z,4.70
2017-08-14T09:25:41.890Z,5.13
2017-08-14T09:28:09.451Z,5.00
2017-08-14T09:30:37.029Z,4.47
2017-08-14T09:33:04.589Z,5.27
2017-08-14T09:35:32.202Z,4.50
2017-08-14T09:37:59.750Z,4.87
2017-08-14T09:40:28.242Z,5.03
2017-08-14T09:42:55.819Z,4.80
2017-08-14T09:45:23.410Z,5.70
2017-08-14T09:47:50.968Z,5.10
2017-08-14T09:50:18.550Z,4.40
2017-08-14T09:52:46.158Z,4.43
2017-08-14T09:55:13.698Z,4.80
2017-08-14T09:57:42.041Z,5.13
2017-08-14T10:00:09.595Z,4.47
2017-08-14T10:02:37.547Z,4.10
2017-08-14T10:05:05.126Z,4.37
2017-08-14T10:07:32.698Z,4.53
2017-08-14T10:10:00.307Z,3.87
2017-08-14T10:12:28.647Z,3.97
2017-08-14T10:14:56.206Z,4.20
2017-08-14T10:17:23.870Z,4.60
2017-08-14T10:19:51.458Z,4.43
2017-08-14T10:22:19.025Z,3.20
2017-08-14T10:24:46.598Z,3.97
2017-08-14T10:27:14.993Z,4.23
2017-08-14T10:29:43.322Z,3.70
2017-08-14T10:32:10.970Z,3.40
2017-08-14T10:34:38.575Z,3.30
2017-08-14T10:37:06.913Z,3.93
2017-08-14T10:39:34.501Z,3.53
2017-08-14T10:42:02.050Z,3.00
2017-08-14T10:44:29.607Z,3.30
2017-08-14T10:46:57.319Z,3.70
2017-08-14T10:49:24.881Z,3.90
2017-08-14T10:51:52.487Z,4.20
2017-08-14T10:54:20.051Z,3.47
2017-08-14T10:56:47.630Z,3.80
2017-08-14T10:59:15.199Z,3.90
2017-08-14T11:01:42.748Z,4.20
2017-08-14T11:04:10.438Z,4.20
2017-08-14T11:06:38.015Z,3.03
2017-08-14T11:09:05.567Z,3.63
2017-08-14T11:11:33.139Z,3.10
2017-08-14T11:14:00.753Z,3.10
2017-08-14T11:16:28.319Z,3.30
2017-08-14T11:18:55.960Z,3.00
2017-08-14T11:21:23.542Z,3.30
2017-08-14T11:23:51.131Z,3.33
2017-08-14T11:26:18.745Z,2.90
2017-08-14T11:28:48.091Z,3.53
2017-08-14T11:31:15.632Z,3.47
2017-08-14T11:33:43.191Z,2.78
2017-08-14T11:36:10.906Z,3.17
2017-08-14T11:38:38.453Z,3.17
2017-08-14T11:41:06.019Z,3.40
2017-08-14T11:43:33.637Z,3.07
2017-08-14T11:46:01.314Z,3.00
2017-08-14T11:48:28.934Z,2.90
2017-08-14T11:50:56.511Z,3.50
2017-08-14T11:53:24.870Z,3.47
2017-08-14T11:55:52.480Z,3.10
2017-08-14T11:58:20.205Z,3.20
2017-08-14T12:00:48.542Z,3.67
2017-08-14T12:03:16.151Z,2.92
2017-08-14T12:05:44.611Z,2.60
2017-08-14T12:08:12.181Z,3.00
2017-08-14T12:10:40.557Z,3.10
2017-08-14T12:13:08.157Z,2.80
2017-08-14T12:15:36.486Z,2.90
2017-08-14T12:18:04.138Z,2.87
2017-08-14T12:20:31.830Z,3.03
2017-08-14T12:22:59.402Z,3.03
2017-08-14T12:25:26.989Z,2.97
2017-08-14T12:27:55.339Z,2.55
2017-08-14T12:30:22.923Z,3.22
2017-08-14T12:32:51.355Z,2.90
2017-08-14T12:35:18.921Z,2.95
2017-08-14T12:37:46.489Z,2.85
2017-08-14T12:40:14.073Z,3.07
2017-08-14T12:42:41.631Z,2.70
2017-08-14T12:45:09.222Z,2.60
2017-08-14T12:47:37.563Z,2.93
2017-08-14T12:50:05.133Z,2.93
2017-08-14T12:52:32.725Z,3.33
2017-08-14T12:55:00.307Z,3.63
2017-08-14T12:57:28.624Z,2.10
2017-08-14T12:59:56.256Z,1.63
2017-08-14T13:02:23.837Z,2.10
2017-08-14T13:04:51.548Z,1.92
2017-08-14T13:07:19.142Z,3.10
2017-08-14T13:09:48.321Z,1.80
2017-08-14T13:12:15.909Z,2.00
2017-08-14T13:14:44.268Z,2.30
2017-08-14T13:17:11.826Z,1.97
2017-08-14T13:19:39.426Z,1.87
2017-08-14T13:22:06.952Z,1.87
2017-08-14T13:24:34.527Z,2.20
2017-08-14T13:27:02.901Z,2.47
2017-08-14T13:29:30.499Z,2.33
2017-08-14T13:31:58.081Z,2.17
2017-08-14T13:34:25.691Z,2.10
2017-08-14T13:36:53.291Z,2.03
2017-08-14T13:39:20.897Z,2.40
2017-08-14T13:41:48.498Z,2.10
2017-08-14T13:44:16.885Z,2.17
2017-08-14T13:46:45.233Z,2.00
2017-08-14T13:49:12.836Z,1.67
2017-08-14T13:51:41.175Z,1.80
2017-08-14T13:54:08.736Z,2.57
2017-08-14T13:56:36.315Z,2.10
2017-08-14T13:59:04.639Z,1.90
2017-08-14T14:01:32.222Z,1.90
2017-08-14T14:03:59.817Z,2.07
2017-08-14T14:06:27.440Z,2.40
2017-08-14T14:08:55.005Z,1.77
2017-08-14T14:11:23.419Z,1.70
2017-08-14T14:13:50.982Z,2.10
2017-08-14T14:16:18.547Z,1.63
2017-08-14T14:18:46.125Z,2.43
2017-08-14T14:21:13.710Z,3.00
2017-08-14T14:23:41.298Z,2.10
2017-08-14T14:26:09.625Z,5.73
2017-08-14T14:28:37.234Z,2.67
2017-08-14T14:31:04.998Z,2.27
2017-08-14T14:33:33.342Z,1.93
2017-08-14T14:36:00.929Z,2.60
2017-08-14T14:38:28.517Z,1.90
2017-08-14T14:40:56.897Z,2.50
2017-08-14T14:43:25.403Z,2.10
2017-08-14T14:45:52.960Z,2.90
2017-08-14T14:48:20.620Z,2.33
2017-08-14T14:50:49.056Z,2.77
2017-08-14T14:53:16.642Z,2.87
2017-08-14T14:55:44.172Z,2.40
2017-08-14T14:58:11.775Z,2.27
2017-08-14T15:00:40.115Z,2.70
2017-08-14T15:03:07.698Z,2.60
2017-08-14T15:05:35.275Z,3.03
2017-08-14T15:08:02.863Z,2.67
2017-08-14T15:10:30.457Z,2.63
2017-08-14T15:12:57.999Z,2.33
2017-08-14T15:15:25.620Z,3.07
2017-08-14T15:17:53.223Z,2.90
2017-08-14T15:20:20.852Z,2.87
2017-08-14T15:22:48.409Z,2.30
2017-08-14T15:25:15.979Z,2.90
2017-08-14T15:27:43.574Z,3.10
2017-08-14T15:30:11.906Z,2.57
2017-08-14T15:32:39.488Z,2.90
2017-08-14T15:35:07.015Z,2.87
2017-08-14T15:37:34.617Z,2.93
2017-08-14T15:40:02.208Z,2.90
2017-08-14T15:42:29.794Z,3.30
2017-08-14T15:44:57.591Z,3.77
2017-08-14T15:47:25.178Z,3.50
2017-08-14T15:49:53.512Z,3.33
2017-08-14T15:52:21.090Z,3.07
2017-08-14T15:54:48.728Z,3.40
2017-08-14T15:57:16.305Z,3.03
2017-08-14T15:59:43.879Z,2.80
2017-08-14T16:02:11.472Z,3.20
2017-08-14T16:04:39.819Z,3.30
2017-08-14T16:07:07.429Z,2.47
